sensor_id;sensor_type;location;lat;lon;timestamp;temperature;humidity
5492;DHT22;2768;53.540;10.224;2023-03-01T00:05:17;3.40;1.00
5492;DHT22;2768;53.540;10.224;2023-03-01T00:11:14;3.10;1.00
5492;DHT22;2768;53.540;10.224;2023-03-01T00:17:09;3.10;1.00
5492;DHT22;2768;53.540;10.224;2023-03-01T00:23:03;3.10;1.00
5492;DHT22;2768;53.540;10.224;2023-03-01T00:28:57;2.90;1.00
5492;DHT22;2768;53.540;10.224;2023-03-01T00:34:50;3.00;1.00
5492;DHT22;2768;53.540;10.224;2023-03-01T00:40:49;2.80;1.00
5492;DHT22;2768;53.540;10.224;2023-03-01T00:46:43;2.90;1.00
5492;DHT22;2768;53.540;10.224;2023-03-01T00:52:36;3.00;1.00
5492;DHT22;2768;53.540;10.224;2023-03-01T00:58:32;3.00;1.00
5492;DHT22;2768;53.540;10.224;2023-03-01T01:04:26;3.00;1.00
5492;DHT22;2768;53.540;10.224;2023-03-01T01:10:19;2.90;1.00
5492;DHT22;2768;53.540;10.224;2023-03-01T01:16:15;2.70;1.00
5492;DHT22;2768;53.540;10.224;2023-03-01T01:22:08;3.00;1.00
5492;DHT22;2768;53.540;10.224;2023-03-01T01:28:02;2.90;1.00
5492;DHT22;2768;53.540;10.224;2023-03-01T01:33:58;3.00;1.00
5492;DHT22;2768;53.540;10.224;2023-03-01T01:39:51;2.60;1.00
5492;DHT22;2768;53.540;10.224;2023-03-01T01:45:45;2.50;1.00
5492;DHT22;2768;53.540;10.224;2023-03-01T01:51:42;2.60;1.00
5492;DHT22;2768;53.540;10.224;2023-03-01T01:57:39;2.70;1.00
5492;DHT22;2768;53.540;10.224;2023-03-01T02:03:35;2.50;1.00
5492;DHT22;2768;53.540;10.224;2023-03-01T02:09:33;2.50;1.00
5492;DHT22;2768;53.540;10.224;2023-03-01T02:15:31;2.60;1.00
5492;DHT22;2768;53.540;10.224;2023-03-01T02:21:34;2.60;1.00
5492;DHT22;2768;53.540;10.224;2023-03-01T02:27:35;2.40;1.00
5492;DHT22;2768;53.540;10.224;2023-03-01T02:33:33;2.40;1.00
5492;DHT22;2768;53.540;10.224;2023-03-01T02:39:33;2.50;1.00
5492;DHT22;2768;53.540;10.224;2023-03-01T02:45:27;2.60;1.00
5492;DHT22;2768;53.540;10.224;2023-03-01T02:51:42;2.70;1.00
5492;DHT22;2768;53.540;10.224;2023-03-01T02:57:40;2.50;1.00
5492;DHT22;2768;53.540;10.224;2023-03-01T03:03:35;2.60;1.00
5492;DHT22;2768;53.540;10.224;2023-03-01T03:09:30;2.50;1.00
5492;DHT22;2768;53.540;10.224;2023-03-01T03:15:25;2.50;1.00
5492;DHT22;2768;53.540;10.224;2023-03-01T03:21:19;2.40;2.50
5492;DHT22;2768;53.540;10.224;2023-03-01T03:27:14;2.60;5.70
5492;DHT22;2768;53.540;10.224;2023-03-01T03:33:07;2.70;8.90
5492;DHT22;2768;53.540;10.224;2023-03-01T03:39:04;2.70;4.50
5492;DHT22;2768;53.540;10.224;2023-03-01T03:44:59;2.50;7.80
5492;DHT22;2768;53.540;10.224;2023-03-01T03:50:54;2.70;13.90
5492;DHT22;2768;53.540;10.224;2023-03-01T03:56:47;2.80;11.40
5492;DHT22;2768;53.540;10.224;2023-03-01T04:02:43;2.80;14.20
5492;DHT22;2768;53.540;10.224;2023-03-01T04:08:36;2.70;15.60
5492;DHT22;2768;53.540;10.224;2023-03-01T04:14:29;3.20;21.90
5492;DHT22;2768;53.540;10.224;2023-03-01T04:20:26;3.00;12.70
5492;DHT22;2768;53.540;10.224;2023-03-01T04:26:20;3.00;13.10
5492;DHT22;2768;53.540;10.224;2023-03-01T04:32:13;3.30;23.00
5492;DHT22;2768;53.540;10.224;2023-03-01T04:38:10;3.60;19.30
5492;DHT22;2768;53.540;10.224;2023-03-01T04:44:04;3.30;16.50
5492;DHT22;2768;53.540;10.224;2023-03-01T04:49:58;3.30;21.10
5492;DHT22;2768;53.540;10.224;2023-03-01T04:55:54;3.40;25.00
5492;DHT22;2768;53.540;10.224;2023-03-01T05:01:47;3.60;25.20
5492;DHT22;2768;53.540;10.224;2023-03-01T05:07:40;3.20;17.80
5492;DHT22;2768;53.540;10.224;2023-03-01T05:13:34;3.10;23.20
5492;DHT22;2768;53.540;10.224;2023-03-01T05:19:27;3.40;41.20
5492;DHT22;2768;53.540;10.224;2023-03-01T05:25:21;3.30;29.60
5492;DHT22;2768;53.540;10.224;2023-03-01T05:31:16;3.30;41.20
5492;DHT22;2768;53.540;10.224;2023-03-01T05:37:09;3.40;48.60
5492;DHT22;2768;53.540;10.224;2023-03-01T05:43:02;3.60;44.90
5492;DHT22;2768;53.540;10.224;2023-03-01T05:48:58;3.50;54.00
5492;DHT22;2768;53.540;10.224;2023-03-01T05:54:51;3.40;56.60
5492;DHT22;2768;53.540;10.224;2023-03-01T06:00:46;3.80;54.30
5492;DHT22;2768;53.540;10.224;2023-03-01T06:06:41;3.60;52.50
5492;DHT22;2768;53.540;10.224;2023-03-01T06:12:36;3.60;56.60
5492;DHT22;2768;53.540;10.224;2023-03-01T06:18:30;3.70;66.70
5492;DHT22;2768;53.540;10.224;2023-03-01T06:24:25;3.70;64.10
5492;DHT22;2768;53.540;10.224;2023-03-01T06:30:22;3.80;64.80
5492;DHT22;2768;53.540;10.224;2023-03-01T06:36:15;3.80;61.80
5492;DHT22;2768;53.540;10.224;2023-03-01T06:42:11;3.90;57.20
5492;DHT22;2768;53.540;10.224;2023-03-01T06:48:06;4.00;56.30
5492;DHT22;2768;53.540;10.224;2023-03-01T06:53:59;3.80;47.80
5492;DHT22;2768;53.540;10.224;2023-03-01T06:59:54;3.70;50.90
5492;DHT22;2768;53.540;10.224;2023-03-01T07:05:48;4.10;66.90
5492;DHT22;2768;53.540;10.224;2023-03-01T07:11:43;4.00;57.20
5492;DHT22;2768;53.540;10.224;2023-03-01T07:17:37;4.00;64.20
5492;DHT22;2768;53.540;10.224;2023-03-01T07:23:30;3.90;58.60
5492;DHT22;2768;53.540;10.224;2023-03-01T07:29:23;4.10;66.20
5492;DHT22;2768;53.540;10.224;2023-03-01T07:35:18;4.10;61.80
5492;DHT22;2768;53.540;10.224;2023-03-01T07:41:11;4.30;58.20
5492;DHT22;2768;53.540;10.224;2023-03-01T07:47:05;4.40;62.60
5492;DHT22;2768;53.540;10.224;2023-03-01T07:52:59;4.30;71.70
5492;DHT22;2768;53.540;10.224;2023-03-01T07:58:52;4.40;68.00
5492;DHT22;2768;53.540;10.224;2023-03-01T08:04:45;4.30;77.10
5492;DHT22;2768;53.540;10.224;2023-03-01T08:10:40;4.60;80.20
5492;DHT22;2768;53.540;10.224;2023-03-01T08:29:52;4.90;61.40
5492;DHT22;2768;53.540;10.224;2023-03-01T08:48:29;5.10;61.90
5492;DHT22;2768;53.540;10.224;2023-03-01T09:00:49;5.30;69.60
5492;DHT22;2768;53.540;10.224;2023-03-01T09:06:43;5.20;71.30
5492;DHT22;2768;53.540;10.224;2023-03-01T09:12:37;5.20;70.90
5492;DHT22;2768;53.540;10.224;2023-03-01T09:18:30;5.10;68.70
5492;DHT22;2768;53.540;10.224;2023-03-01T09:24:25;5.10;77.70
5492;DHT22;2768;53.540;10.224;2023-03-01T09:30:19;5.40;81.40
5492;DHT22;2768;53.540;10.224;2023-03-01T09:36:15;5.70;74.00
5492;DHT22;2768;53.540;10.224;2023-03-01T09:42:12;5.80;79.70
5492;DHT22;2768;53.540;10.224;2023-03-01T09:48:13;5.80;84.20
5492;DHT22;2768;53.540;10.224;2023-03-01T09:54:09;6.20;91.70
5492;DHT22;2768;53.540;10.224;2023-03-01T10:00:24;6.50;85.30
5492;DHT22;2768;53.540;10.224;2023-03-01T10:06:21;7.10;90.20
5492;DHT22;2768;53.540;10.224;2023-03-01T10:12:31;7.60;84.10
5492;DHT22;2768;53.540;10.224;2023-03-01T10:18:28;8.40;75.50
5492;DHT22;2768;53.540;10.224;2023-03-01T10:24:24;9.00;65.50
5492;DHT22;2768;53.540;10.224;2023-03-01T10:30:21;9.50;54.30
5492;DHT22;2768;53.540;10.224;2023-03-01T10:36:17;9.50;48.20
5492;DHT22;2768;53.540;10.224;2023-03-01T10:42:21;9.80;41.10
5492;DHT22;2768;53.540;10.224;2023-03-01T10:48:18;10.10;38.20
5492;DHT22;2768;53.540;10.224;2023-03-01T10:54:19;10.40;33.90
5492;DHT22;2768;53.540;10.224;2023-03-01T11:00:20;9.90;23.30
5492;DHT22;2768;53.540;10.224;2023-03-01T11:06:21;10.20;24.80
5492;DHT22;2768;53.540;10.224;2023-03-01T11:12:16;10.60;32.90
5492;DHT22;2768;53.540;10.224;2023-03-01T11:18:19;11.80;32.90
5492;DHT22;2768;53.540;10.224;2023-03-01T11:24:38;11.60;13.80
5492;DHT22;2768;53.540;10.224;2023-03-01T11:30:39;13.10;18.40
5492;DHT22;2768;53.540;10.224;2023-03-01T11:36:35;14.00;14.50
5492;DHT22;2768;53.540;10.224;2023-03-01T11:42:52;14.70;5.20
5492;DHT22;2768;53.540;10.224;2023-03-01T11:48:56;15.10;1.00
5492;DHT22;2768;53.540;10.224;2023-03-01T11:55:04;14.20;1.00
5492;DHT22;2768;53.540;10.224;2023-03-01T12:01:12;14.60;1.00
5492;DHT22;2768;53.540;10.224;2023-03-01T12:07:17;15.40;1.00
5492;DHT22;2768;53.540;10.224;2023-03-01T12:13:41;15.10;1.00
5492;DHT22;2768;53.540;10.224;2023-03-01T12:19:51;15.80;1.00
5492;DHT22;2768;53.540;10.224;2023-03-01T12:25:55;15.40;1.00
5492;DHT22;2768;53.540;10.224;2023-03-01T12:32:05;15.50;1.00
5492;DHT22;2768;53.540;10.224;2023-03-01T12:38:08;15.70;1.00
5492;DHT22;2768;53.540;10.224;2023-03-01T12:44:26;16.00;1.00
5492;DHT22;2768;53.540;10.224;2023-03-01T12:50:23;16.40;1.00
5492;DHT22;2768;53.540;10.224;2023-03-01T12:56:21;16.70;1.00
5492;DHT22;2768;53.540;10.224;2023-03-01T13:02:21;16.10;1.00
5492;DHT22;2768;53.540;10.224;2023-03-01T13:08:20;16.90;1.00
5492;DHT22;2768;53.540;10.224;2023-03-01T13:14:37;16.10;1.00
5492;DHT22;2768;53.540;10.224;2023-03-01T13:20:47;17.10;1.00
5492;DHT22;2768;53.540;10.224;2023-03-01T13:33:41;17.70;1.00
5492;DHT22;2768;53.540;10.224;2023-03-01T13:39:40;17.90;1.00
5492;DHT22;2768;53.540;10.224;2023-03-01T13:45:38;17.70;1.00
5492;DHT22;2768;53.540;10.224;2023-03-01T13:51:32;17.10;1.00
5492;DHT22;2768;53.540;10.224;2023-03-01T13:57:32;16.80;1.00
5492;DHT22;2768;53.540;10.224;2023-03-01T14:03:28;16.80;1.00
5492;DHT22;2768;53.540;10.224;2023-03-01T14:09:24;17.30;1.00
5492;DHT22;2768;53.540;10.224;2023-03-01T14:15:26;17.10;1.00
5492;DHT22;2768;53.540;10.224;2023-03-01T14:21:20;16.80;1.00
5492;DHT22;2768;53.540;10.224;2023-03-01T14:27:15;16.40;1.00
5492;DHT22;2768;53.540;10.224;2023-03-01T14:33:21;17.00;1.00
5492;DHT22;2768;53.540;10.224;2023-03-01T14:39:19;15.90;1.00
5492;DHT22;2768;53.540;10.224;2023-03-01T14:45:13;16.30;1.00
5492;DHT22;2768;53.540;10.224;2023-03-01T14:51:10;15.20;1.00
5492;DHT22;2768;53.540;10.224;2023-03-01T14:57:05;15.70;1.00
5492;DHT22;2768;53.540;10.224;2023-03-01T15:03:02;16.10;1.00
5492;DHT22;2768;53.540;10.224;2023-03-01T15:08:57;16.10;1.00
5492;DHT22;2768;53.540;10.224;2023-03-01T15:14:51;16.20;1.00
5492;DHT22;2768;53.540;10.224;2023-03-01T15:20:56;16.00;1.00
5492;DHT22;2768;53.540;10.224;2023-03-01T15:27:00;15.70;1.00
5492;DHT22;2768;53.540;10.224;2023-03-01T15:33:18;15.60;1.00
5492;DHT22;2768;53.540;10.224;2023-03-01T15:39:34;15.40;1.00
5492;DHT22;2768;53.540;10.224;2023-03-01T15:45:32;14.80;1.00
5492;DHT22;2768;53.540;10.224;2023-03-01T15:51:32;14.50;1.00
5492;DHT22;2768;53.540;10.224;2023-03-01T15:57:25;14.40;1.00
5492;DHT22;2768;53.540;10.224;2023-03-01T16:03:20;14.00;1.00
5492;DHT22;2768;53.540;10.224;2023-03-01T16:09:14;13.20;1.00
5492;DHT22;2768;53.540;10.224;2023-03-01T16:15:14;12.70;1.00
5492;DHT22;2768;53.540;10.224;2023-03-01T16:21:14;12.20;1.00
5492;DHT22;2768;53.540;10.224;2023-03-01T16:27:08;11.80;1.00
5492;DHT22;2768;53.540;10.224;2023-03-01T16:33:02;11.30;1.00
5492;DHT22;2768;53.540;10.224;2023-03-01T16:39:17;11.40;1.00
5492;DHT22;2768;53.540;10.224;2023-03-01T16:45:10;11.30;1.00
5492;DHT22;2768;53.540;10.224;2023-03-01T16:51:16;10.60;1.00
5492;DHT22;2768;53.540;10.224;2023-03-01T16:57:10;10.40;1.00
5492;DHT22;2768;53.540;10.224;2023-03-01T17:03:04;10.20;1.00
5492;DHT22;2768;53.540;10.224;2023-03-01T17:08:57;9.70;1.00
5492;DHT22;2768;53.540;10.224;2023-03-01T17:14:52;9.60;1.00
5492;DHT22;2768;53.540;10.224;2023-03-01T17:20:45;9.60;1.00
5492;DHT22;2768;53.540;10.224;2023-03-01T17:26:39;9.50;1.00
5492;DHT22;2768;53.540;10.224;2023-03-01T17:32:33;9.30;1.00
5492;DHT22;2768;53.540;10.224;2023-03-01T17:38:27;9.30;1.00
5492;DHT22;2768;53.540;10.224;2023-03-01T17:44:21;8.80;1.00
5492;DHT22;2768;53.540;10.224;2023-03-01T17:50:16;8.80;1.00
5492;DHT22;2768;53.540;10.224;2023-03-01T17:56:09;8.40;1.00
5492;DHT22;2768;53.540;10.224;2023-03-01T18:02:03;8.10;1.00
5492;DHT22;2768;53.540;10.224;2023-03-01T18:07:57;7.90;1.00
5492;DHT22;2768;53.540;10.224;2023-03-01T18:13:52;8.00;1.00
5492;DHT22;2768;53.540;10.224;2023-03-01T18:19:46;7.50;1.00
5492;DHT22;2768;53.540;10.224;2023-03-01T18:25:40;7.00;1.00
5492;DHT22;2768;53.540;10.224;2023-03-01T18:31:33;7.60;6.00
5492;DHT22;2768;53.540;10.224;2023-03-01T18:37:27;7.90;6.10
5492;DHT22;2768;53.540;10.224;2023-03-01T18:43:22;7.70;6.00
5492;DHT22;2768;53.540;10.224;2023-03-01T18:49:15;7.30;5.70
5492;DHT22;2768;53.540;10.224;2023-03-01T18:55:09;6.80;14.00
5492;DHT22;2768;53.540;10.224;2023-03-01T19:01:05;7.10;25.00
5492;DHT22;2768;53.540;10.224;2023-03-01T19:06:59;6.50;23.70
5492;DHT22;2768;53.540;10.224;2023-03-01T19:12:53;6.80;52.00
5492;DHT22;2768;53.540;10.224;2023-03-01T19:18:48;6.60;56.60
5492;DHT22;2768;53.540;10.224;2023-03-01T19:24:43;6.70;88.60
5492;DHT22;2768;53.540;10.224;2023-03-01T19:30:37;6.80;95.80
5492;DHT22;2768;53.540;10.224;2023-03-01T19:36:31;6.90;99.90
5492;DHT22;2768;53.540;10.224;2023-03-01T19:42:26;6.70;99.90
5492;DHT22;2768;53.540;10.224;2023-03-01T19:48:19;6.80;99.90
5492;DHT22;2768;53.540;10.224;2023-03-01T19:54:14;6.50;99.90
5492;DHT22;2768;53.540;10.224;2023-03-01T20:00:12;6.40;99.90
5492;DHT22;2768;53.540;10.224;2023-03-01T20:06:09;6.60;99.90
5492;DHT22;2768;53.540;10.224;2023-03-01T20:12:05;6.80;99.90
5492;DHT22;2768;53.540;10.224;2023-03-01T20:17:58;6.60;99.90
5492;DHT22;2768;53.540;10.224;2023-03-01T20:23:51;6.90;99.90
5492;DHT22;2768;53.540;10.224;2023-03-01T20:29:46;6.70;99.90
5492;DHT22;2768;53.540;10.224;2023-03-01T20:35:42;6.70;99.90
5492;DHT22;2768;53.540;10.224;2023-03-01T20:41:36;6.70;99.90
5492;DHT22;2768;53.540;10.224;2023-03-01T20:47:30;6.80;99.90
5492;DHT22;2768;53.540;10.224;2023-03-01T20:53:24;6.70;99.90
5492;DHT22;2768;53.540;10.224;2023-03-01T20:59:17;6.80;99.90
5492;DHT22;2768;53.540;10.224;2023-03-01T21:05:12;6.90;99.90
5492;DHT22;2768;53.540;10.224;2023-03-01T21:11:06;6.70;99.90
5492;DHT22;2768;53.540;10.224;2023-03-01T21:16:59;6.70;99.90
5492;DHT22;2768;53.540;10.224;2023-03-01T21:22:53;6.70;99.90
5492;DHT22;2768;53.540;10.224;2023-03-01T21:28:47;6.90;99.90
